createdAt,value
2017-06-28T00:02:01.667Z,37.30
2017-06-28T00:04:30.566Z,37.33
2017-06-28T00:06:59.359Z,35.40
2017-06-28T00:09:28.252Z,36.83
2017-06-28T00:11:56.555Z,35.47
2017-06-28T00:14:25.207Z,33.50
2017-06-28T00:16:54.000Z,34.50
2017-06-28T00:19:22.892Z,35.10
2017-06-28T00:21:51.779Z,33.23
2017-06-28T00:24:20.683Z,34.10
2017-06-28T00:26:49.776Z,33.83
2017-06-28T00:29:18.627Z,30.73
2017-06-28T00:31:48.078Z,34.07
2017-06-28T00:34:16.906Z,36.13
2017-06-28T00:36:45.859Z,33.83
2017-06-28T00:39:14.855Z,34.30
2017-06-28T00:41:44.055Z,36.40
2017-06-28T00:44:12.843Z,34.77
2017-06-28T00:46:41.691Z,34.63
2017-06-28T00:49:11.332Z,37.00
2017-06-28T00:51:40.135Z,35.50
2017-06-28T00:54:09.023Z,38.37
2017-06-28T00:56:38.020Z,37.57
2017-06-28T00:59:06.911Z,37.00
2017-06-28T01:01:35.803Z,39.67
2017-06-28T01:04:04.799Z,38.33
2017-06-28T01:06:33.703Z,42.40
2017-06-28T01:09:02.347Z,43.23
2017-06-28T01:11:31.255Z,42.67
2017-06-28T01:13:59.995Z,45.30
2017-06-28T01:16:28.131Z,43.20
2017-06-28T01:18:56.891Z,43.97
2017-06-28T01:21:25.443Z,43.70
2017-06-28T01:23:54.288Z,44.87
2017-06-28T01:26:23.178Z,39.77
2017-06-28T01:28:51.979Z,41.07
2017-06-28T01:31:20.165Z,41.43
2017-06-28T01:33:49.044Z,36.70
2017-06-28T01:36:17.723Z,37.53
2017-06-28T01:38:46.582Z,37.40
2017-06-28T01:41:16.172Z,40.03
2017-06-28T01:43:44.918Z,38.60
2017-06-28T01:46:13.767Z,41.50
2017-06-28T01:48:43.411Z,41.27
2017-06-28T01:51:12.106Z,36.57
2017-06-28T01:53:40.329Z,38.30
2017-06-28T01:56:10.099Z,37.50
2017-06-28T01:58:38.991Z,39.57
2017-06-28T02:01:07.883Z,39.67
2017-06-28T02:03:36.938Z,38.03
2017-06-28T02:06:05.127Z,41.43
2017-06-28T02:08:33.636Z,38.20
2017-06-28T02:11:02.726Z,39.03
2017-06-28T02:13:31.631Z,38.23
2017-06-28T02:16:00.579Z,39.10
2017-06-28T02:18:30.123Z,36.23
2017-06-28T02:20:58.907Z,36.63
2017-06-28T02:23:27.762Z,37.30
2017-06-28T02:25:56.255Z,37.00
2017-06-28T02:28:24.915Z,39.30
2017-06-28T02:30:53.563Z,38.37
2017-06-28T02:33:22.456Z,35.53
2017-06-28T02:35:51.346Z,35.53
2017-06-28T02:38:20.296Z,37.30
2017-06-28T02:40:48.607Z,36.07
2017-06-28T02:43:16.836Z,37.93
2017-06-28T02:45:45.786Z,36.00
2017-06-28T02:48:15.494Z,37.03
2017-06-28T02:50:44.280Z,34.90
2017-06-28T02:53:13.079Z,34.37
2017-06-28T02:55:42.076Z,33.70
2017-06-28T02:58:10.263Z,34.43
2017-06-28T03:00:38.872Z,32.60
2017-06-28T03:03:07.614Z,34.63
2017-06-28T03:05:36.312Z,31.87
2017-06-28T03:08:05.203Z,29.83
2017-06-28T03:10:34.255Z,32.47
2017-06-28T03:13:03.699Z,30.30
2017-06-28T03:15:32.495Z,32.17
2017-06-28T03:18:01.592Z,31.23
2017-06-28T03:20:30.279Z,31.07
2017-06-28T03:22:58.863Z,30.53
2017-06-28T03:25:27.794Z,28.87
2017-06-28T03:27:56.891Z,29.33
2017-06-28T03:30:25.631Z,29.33
2017-06-28T03:32:53.963Z,28.50
2017-06-28T03:35:23.422Z,28.60
2017-06-28T03:37:52.319Z,30.10
2017-06-28T03:40:21.311Z,29.00
2017-06-28T03:42:50.203Z,30.60
2017-06-28T03:45:18.867Z,28.40
2017-06-28T03:47:47.667Z,29.00
2017-06-28T03:50:15.848Z,31.67
2017-06-28T03:52:44.755Z,30.03
2017-06-28T03:55:13.459Z,28.90
2017-06-28T03:57:41.642Z,29.90
2017-06-28T04:00:10.509Z,29.60
2017-06-28T04:02:39.275Z,30.80
2017-06-28T04:05:07.928Z,31.00
2017-06-28T04:07:36.147Z,33.27
2017-06-28T04:10:04.443Z,34.00
2017-06-28T04:12:32.610Z,33.50
2017-06-28T04:15:01.504Z,32.77
2017-06-28T04:17:30.211Z,31.70
2017-06-28T04:19:58.914Z,29.90
2017-06-28T04:22:27.663Z,31.63
2017-06-28T04:24:56.514Z,29.70
2017-06-28T04:27:26.052Z,28.40
2017-06-28T04:29:54.947Z,29.27
2017-06-28T04:32:23.840Z,31.23
2017-06-28T04:34:52.851Z,31.47
2017-06-28T04:37:21.731Z,30.60
2017-06-28T04:39:50.726Z,29.23
2017-06-28T04:42:19.620Z,31.13
2017-06-28T04:44:48.259Z,29.30
2017-06-28T04:47:18.019Z,30.07
2017-06-28T04:49:46.910Z,29.13
2017-06-28T04:52:15.675Z,29.07
2017-06-28T04:54:44.407Z,26.97
2017-06-28T04:57:12.625Z,28.53
2017-06-28T04:59:42.210Z,26.77
2017-06-28T05:02:11.164Z,26.67
2017-06-28T05:04:39.948Z,27.67
2017-06-28T05:07:08.747Z,25.70
2017-06-28T05:09:37.739Z,25.30
2017-06-28T05:12:06.632Z,24.27
2017-06-28T05:14:35.289Z,22.93
2017-06-28T05:17:03.571Z,21.83
2017-06-28T05:19:32.387Z,21.23
2017-06-28T05:22:00.607Z,22.50
2017-06-28T05:24:29.542Z,22.50
2017-06-28T05:26:57.771Z,21.50
2017-06-28T05:29:26.635Z,22.80
2017-06-28T05:31:55.491Z,24.20
2017-06-28T05:34:24.135Z,22.30
2017-06-28T05:36:52.879Z,22.73
2017-06-28T05:39:21.211Z,22.00
2017-06-28T05:41:49.795Z,20.20
2017-06-28T05:44:18.545Z,22.17
2017-06-28T05:46:47.630Z,21.47
2017-06-28T05:49:17.036Z,21.07
2017-06-28T05:51:45.827Z,21.17
2017-06-28T05:54:14.128Z,19.17
2017-06-28T05:56:42.605Z,18.87
2017-06-28T05:59:10.863Z,19.07
2017-06-28T06:01:39.819Z,17.85
2017-06-28T06:04:09.306Z,18.95
2017-06-28T06:06:38.047Z,19.58
2017-06-28T06:09:07.051Z,18.50
2017-06-28T06:11:35.945Z,19.63
2017-06-28T06:14:04.951Z,17.90
2017-06-28T06:16:33.647Z,18.87
2017-06-28T06:19:03.103Z,19.13
2017-06-28T06:21:32.024Z,18.83
2017-06-28T06:24:00.370Z,19.60
2017-06-28T06:26:28.983Z,17.83
2017-06-28T06:28:57.888Z,19.20
2017-06-28T06:31:26.238Z,17.20
2017-06-28T06:33:55.056Z,20.43
2017-06-28T06:36:23.728Z,20.00
2017-06-28T06:38:51.971Z,19.97
2017-06-28T06:41:21.523Z,18.17
2017-06-28T06:43:50.315Z,19.25
2017-06-28T06:46:18.655Z,18.45
2017-06-28T06:48:48.507Z,18.65
2017-06-28T06:51:17.399Z,17.87
2017-06-28T06:53:46.399Z,16.70
2017-06-28T06:56:15.343Z,17.23
2017-06-28T06:58:44.887Z,15.77
2017-06-28T07:01:13.780Z,16.55
2017-06-28T07:03:42.580Z,16.12
2017-06-28T07:06:11.467Z,16.67
2017-06-28T07:08:39.739Z,16.50
2017-06-28T07:11:08.423Z,18.27
2017-06-28T07:13:37.225Z,18.87
2017-06-28T07:16:05.983Z,18.00
2017-06-28T07:18:34.804Z,19.37
2017-06-28T07:21:03.706Z,18.00
2017-06-28T07:23:32.421Z,17.80
2017-06-28T07:26:01.063Z,19.20
2017-06-28T07:28:29.859Z,21.53
2017-06-28T07:30:58.206Z,23.10
2017-06-28T07:33:26.868Z,23.37
2017-06-28T07:35:56.635Z,23.33
2017-06-28T07:38:24.980Z,22.23
2017-06-28T07:40:53.591Z,22.13
2017-06-28T07:43:21.794Z,21.00
2017-06-28T07:45:50.092Z,23.23
2017-06-28T07:48:18.844Z,23.07
2017-06-28T07:50:47.588Z,23.37
2017-06-28T07:53:17.284Z,22.27
2017-06-28T07:55:46.024Z,22.00
2017-06-28T07:58:14.280Z,24.43
2017-06-28T08:00:43.044Z,22.87
2017-06-28T08:03:12.403Z,24.70
2017-06-28T08:05:41.027Z,21.90
2017-06-28T08:08:09.974Z,22.90
2017-06-28T08:10:38.667Z,22.63
2017-06-28T08:13:07.459Z,23.30
2017-06-28T08:15:36.451Z,22.60
2017-06-28T08:18:05.399Z,24.30
2017-06-28T08:20:34.839Z,22.87
2017-06-28T08:23:03.738Z,23.10
2017-06-28T08:25:32.530Z,22.60
2017-06-28T08:28:01.423Z,23.83
2017-06-28T08:30:30.414Z,24.13
2017-06-28T08:32:59.366Z,22.80
2017-06-28T08:35:28.911Z,23.63
2017-06-28T08:37:58.008Z,24.20
2017-06-28T08:40:26.783Z,23.37
2017-06-28T08:42:56.223Z,23.80
2017-06-28T08:45:25.188Z,25.03
2017-06-28T08:47:53.988Z,22.97
2017-06-28T08:50:22.792Z,23.20
2017-06-28T08:52:51.469Z,24.27
2017-06-28T08:55:20.176Z,22.60
2017-06-28T08:57:48.367Z,22.70
2017-06-28T09:00:17.015Z,21.50
2017-06-28T09:02:45.692Z,24.03
2017-06-28T09:05:13.895Z,22.57
2017-06-28T09:07:42.531Z,21.77
2017-06-28T09:10:12.223Z,20.80
2017-06-28T09:12:40.750Z,21.57
2017-06-28T09:15:09.619Z,21.67
2017-06-28T09:17:38.214Z,21.80
2017-06-28T09:20:07.075Z,21.30
2017-06-28T09:22:35.711Z,19.80
2017-06-28T09:25:04.420Z,20.83
2017-06-28T09:27:33.167Z,21.20
2017-06-28T09:30:02.080Z,21.77
2017-06-28T09:32:30.327Z,20.80
2017-06-28T09:34:59.959Z,21.23
2017-06-28T09:37:29.060Z,22.63
2017-06-28T09:39:57.952Z,19.93
2017-06-28T09:42:26.107Z,21.23
2017-06-28T09:44:54.797Z,20.03
2017-06-28T09:47:23.660Z,20.70
2017-06-28T09:49:52.603Z,20.80
2017-06-28T09:52:21.755Z,19.47
2017-06-28T09:54:51.084Z,21.50
2017-06-28T09:57:19.884Z,23.20
2017-06-28T09:59:48.947Z,20.47
2017-06-28T10:02:18.271Z,20.67
2017-06-28T10:04:46.975Z,21.67
2017-06-28T10:07:15.283Z,21.37
2017-06-28T10:09:44.023Z,22.37
2017-06-28T10:12:12.187Z,21.07
2017-06-28T10:14:41.811Z,19.63
2017-06-28T10:17:10.610Z,18.63
2017-06-28T10:19:39.607Z,19.00
2017-06-28T10:22:07.837Z,19.80
2017-06-28T10:24:36.352Z,18.73
2017-06-28T10:27:05.059Z,18.53
2017-06-28T10:29:33.331Z,18.63
2017-06-28T10:32:02.007Z,18.77
2017-06-28T10:34:30.911Z,18.47
2017-06-28T10:36:59.804Z,17.77
2017-06-28T10:39:28.920Z,17.43
2017-06-28T10:41:57.152Z,19.60
2017-06-28T10:44:26.736Z,19.50
2017-06-28T10:46:55.581Z,19.70
2017-06-28T10:49:24.141Z,17.60
2017-06-28T10:51:52.826Z,18.93
2017-06-28T10:54:20.974Z,20.23
2017-06-28T10:56:49.530Z,20.87
2017-06-28T10:59:17.782Z,20.93
2017-06-28T11:01:46.599Z,21.13
2017-06-28T11:04:15.142Z,20.67
2017-06-28T11:06:43.932Z,20.70
2017-06-28T11:09:12.613Z,21.43
2017-06-28T11:11:42.017Z,20.20
2017-06-28T11:14:11.505Z,19.60
2017-06-28T11:16:41.045Z,19.80
2017-06-28T11:19:09.849Z,20.07
2017-06-28T11:21:38.526Z,21.97
2017-06-28T11:24:07.193Z,22.20
2017-06-28T11:26:36.745Z,22.03
2017-06-28T11:29:05.477Z,22.87
2017-06-28T11:31:35.178Z,22.90
2017-06-28T11:34:03.933Z,24.00
2017-06-28T11:36:32.217Z,24.90
2017-06-28T11:39:00.357Z,22.60
2017-06-28T11:41:29.181Z,21.80
2017-06-28T11:43:58.040Z,21.87
2017-06-28T11:46:26.713Z,21.57
2017-06-28T11:48:55.414Z,20.47
2017-06-28T11:51:24.368Z,19.83
2017-06-28T11:53:52.490Z,20.83
2017-06-28T11:56:21.093Z,21.47
2017-06-28T11:58:49.354Z,20.43
2017-06-28T12:01:17.517Z,20.73
2017-06-28T12:03:46.266Z,22.20
2017-06-28T12:06:15.109Z,19.83
2017-06-28T12:08:43.917Z,21.50
2017-06-28T12:11:12.561Z,20.80
2017-06-28T12:13:42.245Z,23.40
2017-06-28T12:16:11.086Z,21.30
2017-06-28T12:18:39.582Z,21.03
2017-06-28T12:21:08.897Z,19.50
2017-06-28T12:23:37.473Z,21.93
2017-06-28T12:26:06.218Z,19.20
2017-06-28T12:28:35.109Z,18.83
2017-06-28T12:31:04.457Z,19.57
2017-06-28T12:33:33.098Z,20.00
2017-06-28T12:36:02.445Z,18.80
2017-06-28T12:38:31.193Z,19.87
2017-06-28T12:40:59.856Z,19.70
2017-06-28T12:43:28.798Z,19.80
2017-06-28T12:45:57.505Z,18.70
2017-06-28T12:48:26.094Z,21.70
2017-06-28T12:50:54.941Z,19.90
2017-06-28T12:53:23.637Z,20.90
2017-06-28T12:55:52.589Z,19.07
2017-06-28T12:58:21.629Z,19.80
2017-06-28T13:00:50.429Z,20.23
2017-06-28T13:03:19.045Z,20.00
2017-06-28T13:05:47.825Z,21.20
2017-06-28T13:08:16.568Z,18.90
2017-06-28T13:10:45.265Z,20.37
2017-06-28T13:13:14.221Z,19.77
2017-06-28T13:15:43.062Z,19.97
2017-06-28T13:18:11.522Z,20.83
2017-06-28T13:20:40.458Z,20.93
2017-06-28T13:23:08.898Z,20.30
2017-06-28T13:25:37.658Z,20.07
2017-06-28T13:28:06.285Z,18.87
2017-06-28T13:30:34.855Z,20.17
2017-06-28T13:33:03.653Z,21.20
2017-06-28T13:35:32.537Z,21.77
2017-06-28T13:38:01.298Z,22.40
2017-06-28T13:40:30.055Z,20.63
2017-06-28T13:42:58.277Z,19.60
2017-06-28T13:45:27.638Z,20.63
2017-06-28T13:47:56.485Z,21.90
2017-06-28T13:50:25.273Z,19.80
2017-06-28T13:52:53.413Z,19.70
2017-06-28T13:55:22.135Z,22.03
2017-06-28T13:57:51.029Z,22.50
2017-06-28T14:00:19.725Z,20.50
2017-06-28T14:02:47.832Z,20.23
2017-06-28T14:05:16.126Z,22.90
2017-06-28T14:07:45.000Z,21.77
2017-06-28T14:10:13.541Z,21.73
2017-06-28T14:12:43.273Z,22.67
2017-06-28T14:15:11.983Z,21.77
2017-06-28T14:17:40.070Z,23.47
2017-06-28T14:20:08.922Z,22.77
2017-06-28T14:22:37.873Z,24.77
2017-06-28T14:25:06.766Z,21.90
2017-06-28T14:27:35.761Z,23.20
2017-06-28T14:30:04.518Z,22.17
2017-06-28T14:32:33.281Z,23.37
2017-06-28T14:35:01.538Z,25.07
2017-06-28T14:37:30.986Z,23.80
2017-06-28T14:39:59.733Z,25.40
2017-06-28T14:42:29.149Z,26.43
2017-06-28T14:44:57.264Z,28.43
2017-06-28T14:47:26.045Z,25.53
2017-06-28T14:49:54.885Z,26.63
2017-06-28T14:52:24.276Z,26.33
2017-06-28T14:54:53.130Z,27.20
2017-06-28T14:57:22.210Z,27.93
2017-06-28T14:59:50.768Z,26.80
2017-06-28T15:02:20.493Z,28.90
2017-06-28T15:04:49.398Z,29.40
2017-06-28T15:20:23.586Z,30.80
2017-06-28T15:22:51.673Z,29.20
2017-06-28T15:25:20.245Z,27.80
2017-06-28T15:27:48.929Z,29.03
2017-06-28T15:30:17.628Z,28.37
2017-06-28T15:32:46.415Z,30.87
2017-06-28T15:35:15.373Z,30.43
2017-06-28T15:37:44.366Z,29.30
2017-06-28T15:40:12.538Z,29.87
2017-06-28T15:42:40.737Z,32.10
2017-06-28T15:45:10.146Z,30.00
2017-06-28T15:47:39.553Z,30.50
2017-06-28T15:50:08.654Z,31.77
2017-06-28T15:52:37.437Z,30.57
2017-06-28T15:55:06.790Z,30.93
2017-06-28T15:57:35.634Z,32.67
2017-06-28T16:00:04.341Z,29.90
2017-06-28T16:02:33.334Z,30.50
2017-06-28T16:05:01.666Z,31.00
2017-06-28T16:07:30.273Z,30.40
2017-06-28T16:09:59.649Z,30.40
2017-06-28T16:12:28.558Z,32.40
2017-06-28T16:14:58.257Z,32.17
2017-06-28T16:17:26.813Z,32.93
2017-06-28T16:19:55.600Z,33.50
2017-06-28T16:22:24.346Z,34.50
2017-06-28T16:24:53.689Z,29.47
2017-06-28T16:27:22.830Z,30.33
2017-06-28T16:29:51.540Z,32.97
2017-06-28T16:32:19.709Z,36.37
2017-06-28T16:34:48.417Z,32.87
2017-06-28T16:37:17.128Z,34.20
2017-06-28T16:39:45.774Z,33.60
2017-06-28T16:42:14.682Z,36.27
2017-06-28T16:44:43.430Z,34.20
2017-06-28T16:47:11.522Z,34.40
2017-06-28T16:49:40.969Z,36.10
2017-06-28T16:52:09.269Z,38.23
2017-06-28T16:54:38.113Z,39.17
2017-06-28T16:57:06.402Z,36.07
2017-06-28T16:59:35.206Z,36.80
2017-06-28T17:02:03.973Z,37.07
2017-06-28T17:04:32.970Z,38.07
2017-06-28T17:07:01.717Z,41.47
2017-06-28T17:09:30.718Z,36.90
2017-06-28T17:12:00.141Z,37.60
2017-06-28T17:14:28.841Z,38.70
2017-06-28T17:16:57.697Z,43.20
2017-06-28T17:19:26.692Z,44.23
2017-06-28T17:21:55.529Z,45.30
2017-06-28T17:24:24.093Z,44.50
2017-06-28T17:26:52.925Z,43.70
2017-06-28T17:29:21.710Z,43.97
2017-06-28T17:31:50.474Z,45.20
2017-06-28T17:34:19.674Z,42.57
2017-06-28T17:36:48.426Z,39.43
2017-06-28T17:39:17.757Z,44.13
2017-06-28T17:41:46.646Z,41.27
2017-06-28T17:44:15.405Z,42.40
2017-06-28T17:46:44.349Z,43.80
2017-06-28T17:49:13.445Z,43.43
2017-06-28T17:51:42.337Z,44.80
2017-06-28T17:54:11.230Z,44.77
2017-06-28T17:56:40.227Z,46.50
2017-06-28T17:59:09.030Z,46.70
2017-06-28T18:01:37.181Z,48.23
2017-06-28T18:04:05.433Z,49.07
2017-06-28T18:06:35.020Z,48.27
2017-06-28T18:09:04.018Z,46.90
2017-06-28T18:11:32.961Z,44.83
2017-06-28T18:14:01.855Z,47.00
2017-06-28T18:16:30.413Z,45.20
2017-06-28T18:18:59.141Z,44.00
2017-06-28T18:21:27.901Z,45.30
2017-06-28T18:23:56.654Z,46.57
2017-06-28T18:26:25.290Z,51.60
2017-06-28T18:28:53.457Z,54.73
2017-06-28T18:31:22.405Z,54.10
2017-06-28T18:33:51.101Z,55.37
2017-06-28T18:36:19.753Z,59.23
2017-06-28T18:38:48.697Z,58.97
2017-06-28T18:41:18.126Z,61.00
2017-06-28T18:43:46.739Z,61.13
2017-06-28T18:46:15.377Z,65.20
2017-06-28T18:48:45.481Z,61.20
2017-06-28T18:51:15.010Z,48.67
2017-06-28T18:53:43.672Z,45.40
2017-06-28T18:56:13.278Z,46.70
2017-06-28T18:58:42.009Z,48.40
2017-06-28T19:01:10.898Z,47.87
2017-06-28T19:03:39.785Z,50.60
2017-06-28T19:06:08.745Z,49.90
2017-06-28T19:08:36.913Z,44.23
2017-06-28T19:11:05.843Z,43.90
2017-06-28T19:13:34.598Z,42.47
2017-06-28T19:16:03.440Z,41.33
2017-06-28T19:18:31.714Z,43.43
2017-06-28T19:21:00.481Z,43.83
2017-06-28T19:23:28.629Z,41.07
2017-06-28T19:25:57.381Z,41.93
2017-06-28T19:28:26.045Z,42.07
2017-06-28T19:30:54.899Z,44.30
2017-06-28T19:33:23.842Z,41.53
2017-06-28T19:35:52.732Z,42.60
2017-06-28T19:38:21.293Z,44.13
2017-06-28T19:40:50.129Z,40.90
2017-06-28T19:43:18.785Z,41.50
2017-06-28T19:45:47.430Z,41.00
2017-06-28T19:48:15.728Z,46.07
2017-06-28T19:50:45.853Z,41.37
2017-06-28T19:53:15.097Z,46.13
2017-06-28T19:55:44.045Z,45.80
2017-06-28T19:58:12.345Z,47.23
2017-06-28T20:00:40.878Z,43.17
2017-06-28T20:03:09.646Z,46.23
2017-06-28T20:05:38.285Z,45.43
2017-06-28T20:08:07.630Z,46.43
2017-06-28T20:10:36.474Z,48.37
2017-06-28T20:13:05.950Z,46.63
2017-06-28T20:15:34.613Z,48.77
2017-06-28T20:18:03.361Z,48.40
2017-06-28T20:20:32.064Z,47.13
2017-06-28T20:23:00.914Z,46.57
2017-06-28T20:25:30.009Z,46.63
2017-06-28T20:27:58.767Z,49.17
2017-06-28T20:30:27.309Z,49.73
2017-06-28T20:32:56.145Z,47.80
2017-06-28T20:35:24.786Z,47.83
2017-06-28T20:37:53.589Z,47.63
2017-06-28T20:40:22.542Z,47.90
2017-06-28T20:42:51.303Z,44.77
2017-06-28T20:45:19.841Z,49.10
2017-06-28T20:47:49.628Z,48.60
2017-06-28T20:50:19.057Z,49.13
2017-06-28T20:52:48.470Z,48.77
2017-06-28T20:55:17.294Z,44.57
2017-06-28T20:57:45.953Z,44.63
2017-06-28T21:00:14.850Z,44.87
2017-06-28T21:02:43.842Z,45.90
2017-06-28T21:05:12.794Z,44.13
2017-06-28T21:07:42.062Z,45.33
2017-06-28T21:10:10.354Z,45.83
2017-06-28T21:12:39.033Z,46.43
2017-06-28T21:15:07.673Z,47.83
2017-06-28T21:17:36.477Z,45.57
2017-06-28T21:20:05.329Z,44.40
2017-06-28T21:22:33.902Z,48.17
2017-06-28T21:25:02.201Z,48.27
2017-06-28T21:27:31.662Z,45.07
2017-06-28T21:42:55.974Z,46.60
2017-06-28T21:45:24.732Z,44.97
2017-06-28T21:47:53.369Z,45.73
2017-06-28T21:50:23.102Z,44.50
2017-06-28T21:52:51.902Z,47.80
2017-06-28T21:55:20.607Z,48.07
2017-06-28T21:57:49.270Z,44.87
2017-06-28T22:00:17.981Z,43.73
2017-06-28T22:02:46.741Z,46.60
2017-06-28T22:05:14.998Z,46.73
2017-06-28T22:07:44.425Z,48.27
2017-06-28T22:10:12.562Z,49.27
2017-06-28T22:12:41.377Z,49.37
2017-06-28T22:15:10.826Z,49.50
2017-06-28T22:17:39.113Z,50.40
2017-06-28T22:20:08.363Z,51.23
2017-06-28T22:22:37.267Z,51.20
2017-06-28T22:25:06.117Z,53.53
2017-06-28T22:27:35.113Z,50.23
2017-06-28T22:30:03.617Z,53.90
2017-06-28T22:32:31.766Z,53.80
2017-06-28T22:35:00.497Z,53.10
2017-06-28T22:37:29.111Z,53.27
2017-06-28T22:39:57.858Z,53.23
2017-06-28T22:42:26.761Z,53.77
2017-06-28T22:44:55.651Z,52.63
2017-06-28T22:47:24.557Z,51.30
2017-06-28T22:49:53.233Z,52.27
2017-06-28T22:52:21.906Z,47.97
2017-06-28T22:54:51.105Z,53.50
2017-06-28T22:57:20.894Z,49.33
2017-06-28T22:59:49.739Z,50.63
2017-06-28T23:02:18.381Z,53.80
2017-06-28T23:04:48.022Z,53.47
2017-06-28T23:07:16.125Z,53.10
2017-06-28T23:09:44.769Z,52.23
2017-06-28T23:12:13.778Z,52.40
2017-06-28T23:14:42.566Z,54.67
2017-06-28T23:17:11.417Z,53.03
2017-06-28T23:19:39.937Z,53.20
2017-06-28T23:22:08.105Z,56.67
2017-06-28T23:24:36.813Z,56.67
2017-06-28T23:27:05.494Z,55.50
2017-06-28T23:29:34.066Z,55.97
2017-06-28T23:32:02.788Z,58.23
2017-06-28T23:34:31.753Z,58.00
2017-06-28T23:37:00.556Z,59.80
2017-06-28T23:39:29.611Z,58.43
2017-06-28T23:41:57.906Z,59.50
2017-06-28T23:44:26.589Z,61.93
2017-06-28T23:46:55.894Z,59.70
2017-06-28T23:49:25.529Z,59.53
2017-06-28T23:51:53.985Z,59.47
2017-06-28T23:54:23.517Z,59.67
2017-06-28T23:56:52.462Z,57.77
2017-06-28T23:59:21.075Z,60.50
